Nearby METAR Reports

 

KVCT - Victoria, Texas, USA
Distance from station: E 12mi, 20km
Updated: 02/19/2019 2:51pm
Mist, Overcast
Mist, Overcast
 Wind from N
Wind: N 16 mph , 26 km/h
Temperature: 48°F , 9°C
Wind Chill: 42°F , 6°C
Dew Point: 46°F , 8°C
Humidity: 94%
Barometer: 29.82 inHg , 1009.8 hPa
Summary: Mist
Clouds: Overcast
Visibility: 2 miles , 3 km
Cloud details: Overcast 600 ft
2019/02/19 20:51 KVCT 192051Z 01014KT 2SM BR OVC006 09/08 A2982 RMK AO2 CIG 004V009 SLP097 T00940083 56044
KPKV - Port Lavaca, Texas, USA
Distance from station: ESE 31mi, 50km
Updated: 02/19/2019 3:35pm
Mist, Overcast
Mist, Overcast
 Wind from NNE
Wind: NNE 10 mph , 17 km/h
Temperature: 52°F , 11°C
Dew Point: 50°F , 10°C
Humidity: 94%
Barometer: 29.80 inHg , 1009.1 hPa
Summary: Mist
Clouds: Overcast
Visibility: 2 miles , 3 km
Cloud details: Overcast 500 ft
2019/02/19 21:35 KPKV 192135Z AUTO 02009KT 2SM BR OVC005 11/10 A2980 RMK AO2 T01070100
 
KT20 - Gonzales Muni, Texas, USA
Distance from station: NNW 50mi, 81km
Updated: 02/19/2019 3:35pm
Overcast
Overcast
 Wind from NNE
Wind: NNE 6 mph , 9 km/h
Temperature: 45°F , 7°C
Wind Chill: 42°F , 6°C
Dew Point: 45°F , 7°C
Humidity: 100%
Barometer: 29.84 inHg , 1010.5 hPa
Clouds: Overcast
Visibility: 7 miles , 11 km
Cloud details: Overcast 500 ft
2019/02/19 21:35 KT20 192135Z AUTO 02005KT 7SM OVC005 07/07 A2984 RMK AO2 T00680065
KBEA - Beeville Muni, Texas, USA
Distance from station: SW 51mi, 83km
Updated: 02/19/2019 3:35pm
Overcast
Overcast
 Wind from N
Wind: N 14 mph , 22 km/h
Temperature: 50°F , 10°C
Wind Chill: 45°F , 7°C
Dew Point: 45°F , 7°C
Humidity: 82%
Barometer: 29.83 inHg , 1010.2 hPa
Clouds: Overcast
Visibility: 10 miles , 16 km
Cloud details: Overcast 600 ft
2019/02/19 21:35 KBEA 192135Z AUTO 01012KT 10SM OVC006 10/07 A2983 RMK AO2 T00960065
 
KRKP - Rockport, Texas, USA
Distance from station: S 53mi, 86km
Updated: 02/19/2019 2:53pm
Mist, Overcast
Mist, Overcast
 Wind from N
Wind: N 12 mph , 19 km/h
Temperature: 52°F , 11°C
Dew Point: 50°F , 10°C
Humidity: 94%
Barometer: 29.80 inHg , 1009.1 hPa
Summary: Mist
Clouds: Overcast
Visibility: 3 miles , 5 km
Cloud details: Overcast 500 ft
2019/02/19 20:53 KRKP 192053Z AUTO 36010KT 3SM BR OVC005 11/10 A2980 RMK AO2 SLP093 T01110100 58024
KPSX - Palacios, Texas, USA
Distance from station: E 55mi, 88km
Updated: 02/19/2019 3:16pm
Light rain, Mist, Overcast
Light rain, Mist, Overcast
 Wind from N
Wind: N 14 mph , 22 km/h
Temperature: 52°F , 11°C
Dew Point: 52°F , 11°C
Humidity: 100%
Barometer: 29.79 inHg , 1008.8 hPa
Summary: Light rain, Mist
Clouds: Overcast
Visibility: 2 miles , 3 km
Cloud details: Overcast 400 ft
2019/02/19 21:16 KPSX 192116Z AUTO 36012KT 2SM -RA BR OVC004 11/11 A2979 RMK AO2 RAB05 P0000 T01110111
 
KTFP - Ingleside/Tp Mcc, Texas, USA
Distance from station: S 65mi, 104km
Updated: 02/19/2019 3:35pm
Overcast
Overcast
 Wind from NNE
Wind: NNE 13 mph , 20 km/h
Temperature: 54°F , 12°C
Dew Point: 50°F , 10°C
Humidity: 88%
Barometer: 29.79 inHg , 1008.8 hPa
Clouds: Overcast
Visibility: 7 miles , 11 km
Cloud details: Overcast 500 ft
2019/02/19 21:35 KTFP 192135Z AUTO 02011KT 7SM OVC005 12/10 A2979 RMK AO2 T01200101 PNO
K66R - Columbus, Texas, USA
Distance from station: NE 66mi, 106km
Updated: 02/19/2019 3:35pm
Light drizzle, Overcast
Light drizzle, Overcast
 Wind from NNE
Wind: NNE 8 mph , 13 km/h
Temperature: 46°F , 8°C
Wind Chill: 42°F , 6°C
Dew Point: 45°F , 7°C
Humidity: 93%
Barometer: 29.83 inHg , 1010.2 hPa
Summary: Light Drizzle
Clouds: Overcast
Visibility: 3 miles , 5 km
Cloud details: Overcast 500 ft
2019/02/19 21:35 K66R 192135Z AUTO 02007KT 3SM -DZ OVC005 08/07 A2983 RMK AO2 T00810067
 
KARM - Wharton, Texas, USA
Distance from station: ENE 66mi, 106km
Updated: 02/19/2019 3:35pm
Mist, Overcast
Mist, Overcast
 Wind from N
Wind: N 10 mph , 17 km/h
Temperature: 48°F , 9°C
Wind Chill: 44°F , 7°C
Dew Point: 46°F , 8°C
Humidity: 94%
Barometer: 29.82 inHg , 1009.8 hPa
Summary: Mist
Clouds: Overcast
Visibility: 1 3/4 miles , 2.8 km
Cloud details: Overcast 300 ft
2019/02/19 21:35 KARM 192135Z AUTO 36009KT 1 3/4SM BR OVC003 09/08 A2982 RMK AO2 P0001 T00860080
KRAS - Port Aransas, Texas, USA
Distance from station: S 71mi, 115km
Updated: 02/19/2019 3:35pm
Mist, Overcast
Mist, Overcast
 Wind from N
Wind: N 15 mph , 24 km/h
Temperature: 54°F , 12°C
Dew Point: 52°F , 11°C
Humidity: 94%
Barometer: 29.79 inHg , 1008.8 hPa
Summary: Mist
Clouds: Overcast
Visibility: 7 miles , 11 km
Cloud details: Overcast 400 ft
2019/02/19 21:35 KRAS 192135Z AUTO 35013KT 7SM BR OVC004 12/11 A2979 RMK AO2 T01160107
 
KELA - Eagle Lake, Texas, USA
Distance from station: NE 72mi, 115km
Updated: 02/19/2019 3:35pm
Light drizzle, Overcast
Light drizzle, Overcast
 Wind from NNE
Wind: NNE 10 mph , 17 km/h, Gust: 18 mph , 30 km/h
Temperature: 46°F , 8°C
Wind Chill: 41°F , 5°C
Dew Point: 45°F , 7°C
Humidity: 93%
Barometer: 29.82 inHg , 1009.8 hPa
Summary: Light Drizzle
Clouds: Overcast
Visibility: 2 1/2 miles , 4 km
Cloud details: Overcast 500 ft
2019/02/19 21:35 KELA 192135Z AUTO 03009G16KT 2 1/2SM -DZ OVC005 08/07 A2982 RMK AO2 P0001 T00770072
K3T5 - La Grange, Texas, USA
Distance from station: N 73mi, 118km
Updated: 02/19/2019 3:35pm
Mist, Overcast
Mist, Overcast
 Wind from N
Wind: N 7 mph , 11 km/h
Temperature: 45°F , 7°C
Wind Chill: 41°F , 5°C
Dew Point: 45°F , 7°C
Humidity: 100%
Barometer: 29.83 inHg , 1010.2 hPa
Summary: Mist
Clouds: Overcast
Visibility: 4 miles , 6 km
Cloud details: Overcast 600 ft
2019/02/19 21:35 K3T5 192135Z AUTO 01006KT 4SM BR OVC006 07/07 A2983 RMK AO2 T00730073
 
KBYY - Bay City, Texas, USA
Distance from station: E 77mi, 124km
Updated: 02/19/2019 3:35pm
Rain, Overcast
Rain, Overcast
 Wind from N
Wind: N 8 mph , 13 km/h
Temperature: 52°F , 11°C
Dew Point: 52°F , 11°C
Humidity: 100%
Barometer: 29.79 inHg , 1008.8 hPa
Summary: Rain
Clouds: Overcast
Visibility: 2 miles , 3 km
Cloud details: Overcast 400 ft
2019/02/19 21:35 KBYY 192135Z AUTO 01007KT 2SM RA OVC004 11/11 A2979 RMK AO2 P0001 T01160116
KCRP - Corpus Christi, Texas, USA
Distance from station: SSW 78mi, 126km
Updated: 02/19/2019 3:39pm
Overcast
Overcast
 Wind from NNE
Wind: NNE 14 mph , 22 km/h
Temperature: 54°F , 12°C
Dew Point: 48°F , 9°C
Humidity: 82%
Barometer: 29.79 inHg , 1008.8 hPa
Clouds: Overcast
Visibility: 10 miles , 16 km
Cloud details: Mostly cloudy 800 ft
Overcast 1100 ft
2019/02/19 21:39 KCRP 192139Z 02012KT 10SM BKN008 OVC011 12/09 A2979 RMK AO2 T01220089
 
KNGP - C. Christi Nas, Texas, USA
Distance from station: S 81mi, 130km
Updated: 02/19/2019 2:56pm
Overcast
Overcast
 Wind from NNE
Wind: NNE 16 mph , 26 km/h
Temperature: 54°F , 12°C
Dew Point: 50°F , 10°C
Humidity: 88%
Barometer: 29.79 inHg , 1008.8 hPa
Clouds: Overcast
Visibility: 7 miles , 11 km
Cloud details: Partly cloudy 400 ft
Overcast 600 ft
2019/02/19 20:56 KNGP 192056Z 02014KT 7SM SCT004 OVC006 12/10 A2979 RMK AO2 SLP087 T01220100 56038 $
KRBO - Robstown/Nueces, Texas, USA
Distance from station: SSW 81mi, 130km
Updated: 12/12/2018 2:55pm
NOT Current
Clear
Clear
 Wind from SSE
Wind: SSE 15 mph , 24 km/h
Temperature: 72°F , 22°C
Dew Point: 63°F , 17°C
Humidity: 73%
Barometer: 29.91 inHg , 1012.9 hPa
Clouds: Clear
Visibility: 10 miles , 16 km
2018/12/12 20:55 KRBO 122055Z AUTO 16013KT 10SM CLR 22/17 A2991 RMK AO2 T02170165
 
KBAZ - New Braunfels, Texas, USA
Distance from station: NW 81mi, 131km
Updated: 02/19/2019 3:28pm
Light rain, Mist, Overcast
Light rain, Mist, Overcast
 Wind from NNE
Wind: NNE 12 mph , 19 km/h
Temperature: 43°F , 6°C
Wind Chill: 37°F , 3°C
Dew Point: 39°F , 4°C
Humidity: 87%
Barometer: 29.87 inHg , 1011.5 hPa
Summary: Light rain, Mist
Clouds: Overcast
Visibility: 2 1/2 miles , 4 km
Cloud details: Overcast 600 ft
2019/02/19 21:28 KBAZ 192128Z 02010KT 2 1/2SM -RA BR OVC006 06/04 A2987 RMK AO2 RAB28 CIG 005V010 P0000 T00610044
KRND - Randolph Afb, Texas, USA
Distance from station: NW 82mi, 132km
Updated: 02/19/2019 3:19pm
Light rain, Overcast
Light rain, Overcast
 Wind from N
Wind: N 12 mph , 19 km/h
Temperature: 43°F , 6°C
Wind Chill: 37°F , 3°C
Dew Point: 41°F , 5°C
Humidity: 93%
Barometer: 29.86 inHg , 1011.2 hPa
Summary: Light rain
Clouds: Overcast
Visibility: 6 miles , 10 km
Cloud details: Overcast 600 ft
2019/02/19 21:19 KRND 192119Z 36010KT 6SM -RA OVC006 06/05 A2986 RMK AO2A RAB19 SLP114
 
KHYI - San Marcos, Texas, USA
Distance from station: NNW 84mi, 135km
Updated: 02/19/2019 2:56pm
Overcast
Overcast
 Wind from NNE
Wind: NNE 13 mph , 20 km/h
Temperature: 43°F , 6°C
Wind Chill: 36°F , 2°C
Dew Point: 39°F , 4°C
Humidity: 87%
Barometer: 29.88 inHg , 1011.9 hPa
Clouds: Overcast
Visibility: 10 miles , 16 km
Cloud details: Overcast 800 ft
2019/02/19 20:56 KHYI 192056Z 03011KT 10SM OVC008 06/04 A2988 RMK AO2 CIG 007V014 SLP116 60001 T00560044 56046
KPEZ - Pleasanton Muni, Texas, USA
Distance from station: W 84mi, 135km
Updated: 02/19/2019 3:35pm
Overcast
Overcast
 Wind from NNE
Wind: NNE 8 mph , 13 km/h
Temperature: 45°F , 7°C
Wind Chill: 41°F , 5°C
Dew Point: 41°F , 5°C
Humidity: 87%
Barometer: 29.86 inHg , 1011.2 hPa
Clouds: Overcast
Visibility: 10 miles , 16 km
Cloud details: Overcast 700 ft
2019/02/19 21:35 KPEZ 192135Z AUTO 03007KT 10SM OVC007 07/05 A2986 RMK AO2 T00650054